Time;durP1;ratioP1;P1;durP2;ratioP2;P2;SDS_P1;SDS_P2;PMS_P1;PMS_P2;Temp;Humidity;BMP_temperature;BMP_pressure;BME280_temperature;BME280_humidity;BME280_pressure;Samples;Min_cycle;Max_cycle;Signal;HPM_P1;HPM_P2
2022/03/07 00:01:30;;;;;;;3.50;3.20;;;4.10;50.10;;;;;;932680;150;27371;-78
2022/03/07 00:03:57;;;;;;;2.70;2.50;;;4.10;50.00;;;;;;932450;152;27425;-78
2022/03/07 00:06:23;;;;;;;3.67;3.27;;;4.10;50.00;;;;;;940734;150;27478;-78
2022/03/07 00:08:50;;;;;;;2.90;2.70;;;4.10;50.60;;;;;;943198;148;27355;-78
2022/03/07 00:11:16;;;;;;;3.10;2.63;;;4.00;50.00;;;;;;944859;148;27356;-78
2022/03/07 00:13:43;;;;;;;3.10;2.80;;;4.00;49.90;;;;;;944961;150;27275;-78
2022/03/07 00:16:10;;;;;;;2.63;2.43;;;4.00;50.00;;;;;;946300;150;27769;-78
2022/03/07 00:18:36;;;;;;;2.93;2.73;;;4.00;49.10;;;;;;945236;148;27279;-78
2022/03/07 00:21:03;;;;;;;2.37;2.27;;;3.90;49.90;;;;;;945139;150;27332;-78
2022/03/07 00:23:29;;;;;;;4.63;2.63;;;3.90;49.80;;;;;;946223;150;27342;-78
2022/03/07 00:25:56;;;;;;;3.07;2.77;;;3.90;49.70;;;;;;946772;148;27427;-78
2022/03/07 00:28:22;;;;;;;2.40;2.27;;;3.80;50.20;;;;;;945823;148;28136;-78
2022/03/07 00:30:49;;;;;;;2.90;2.60;;;3.80;49.80;;;;;;945866;150;27348;-78
2022/03/07 00:33:16;;;;;;;3.30;3.00;;;3.80;49.60;;;;;;944975;147;27363;-78
2022/03/07 00:35:42;;;;;;;2.93;2.33;;;3.70;49.90;;;;;;945134;148;27291;-78
2022/03/07 00:38:09;;;;;;;2.80;2.40;;;3.70;49.90;;;;;;943788;148;27437;-78
2022/03/07 00:40:35;;;;;;;2.77;2.57;;;3.70;49.90;;;;;;945742;150;27363;-78
2022/03/07 00:43:02;;;;;;;2.87;2.60;;;3.60;50.00;;;;;;943878;150;27338;-78
2022/03/07 00:45:29;;;;;;;2.73;2.53;;;3.60;49.90;;;;;;944761;150;27355;-78
2022/03/07 00:47:55;;;;;;;2.67;2.47;;;3.60;50.00;;;;;;944379;150;27297;-78
2022/03/07 00:50:22;;;;;;;2.77;2.57;;;3.60;50.00;;;;;;944644;148;27286;-78
2022/03/07 00:52:48;;;;;;;2.90;2.30;;;3.50;49.90;;;;;;944198;150;27279;-78
2022/03/07 00:55:15;;;;;;;3.03;2.83;;;3.50;49.90;;;;;;946129;150;27327;-78
2022/03/07 00:57:41;;;;;;;2.53;2.33;;;3.50;49.90;;;;;;945855;148;27358;-78
2022/03/07 01:00:08;;;;;;;2.40;2.20;;;3.50;49.90;;;;;;945780;150;27259;-78
2022/03/07 01:02:35;;;;;;;2.73;2.53;;;3.50;49.90;;;;;;944960;150;27357;-78
2022/03/07 01:05:01;;;;;;;2.77;2.43;;;3.40;49.90;;;;;;945881;148;27396;-78
2022/03/07 01:07:28;;;;;;;2.63;2.43;;;3.40;49.80;;;;;;935450;150;27404;-78
2022/03/07 01:09:55;;;;;;;2.60;2.40;;;3.30;49.90;;;;;;933421;151;27254;-78
2022/03/07 01:12:21;;;;;;;2.30;2.20;;;3.30;49.90;;;;;;932651;152;27384;-78
2022/03/07 01:14:48;;;;;;;3.93;2.43;;;3.20;49.80;;;;;;935240;150;27582;-78
2022/03/07 01:17:14;;;;;;;2.77;2.57;;;3.20;49.90;;;;;;933031;150;27490;-78
2022/03/07 01:19:41;;;;;;;2.20;2.10;;;3.10;49.90;;;;;;931905;152;27338;-78
2022/03/07 01:22:08;;;;;;;3.03;2.43;;;3.10;49.90;;;;;;934798;150;27278;-78
2022/03/07 01:24:36;;;;;;;2.40;2.20;;;3.00;49.90;;;;;;932942;150;27403;-78
2022/03/07 01:27:01;;;;;;;2.87;2.63;;;3.00;50.00;;;;;;932123;151;27237;-78
2022/03/07 01:29:27;;;;;;;3.07;2.77;;;2.90;49.90;;;;;;933258;152;27414;-78
2022/03/07 01:31:54;;;;;;;3.67;2.83;;;2.90;49.80;;;;;;932748;152;27310;-78
2022/03/07 01:34:20;;;;;;;3.17;2.87;;;2.80;49.90;;;;;;932912;152;27417;-78
2022/03/07 01:36:47;;;;;;;2.40;2.30;;;2.80;49.90;;;;;;932565;152;27452;-78
2022/03/07 01:39:14;;;;;;;2.60;2.40;;;2.70;49.80;;;;;;933875;150;27290;-78
2022/03/07 01:41:40;;;;;;;2.93;2.30;;;2.70;49.80;;;;;;935825;152;27340;-78
2022/03/07 01:44:07;;;;;;;2.87;2.67;;;2.60;49.80;;;;;;932189;151;27306;-78
2022/03/07 01:46:33;;;;;;;3.27;2.63;;;2.60;49.90;;;;;;932267;151;27351;-78
2022/03/07 01:49:00;;;;;;;3.27;3.07;;;2.60;49.90;;;;;;931977;151;27379;-78
2022/03/07 01:51:27;;;;;;;3.60;2.73;;;2.50;49.80;;;;;;934191;152;27346;-78
2022/03/07 01:53:53;;;;;;;4.13;3.30;;;2.50;49.90;;;;;;932287;152;27438;-78
2022/03/07 01:56:20;;;;;;;3.67;3.37;;;2.50;49.90;;;;;;934468;152;27291;-78
2022/03/07 01:58:46;;;;;;;4.33;3.33;;;2.50;50.00;;;;;;933482;150;27663;-78
2022/03/07 02:01:13;;;;;;;4.00;3.43;;;2.50;50.00;;;;;;933606;152;27312;-78
2022/03/07 02:03:39;;;;;;;6.60;4.50;;;2.50;49.90;;;;;;933377;150;27269;-78
2022/03/07 02:06:06;;;;;;;3.87;3.57;;;2.50;50.00;;;;;;935973;152;27348;-78
2022/03/07 02:08:33;;;;;;;4.57;4.17;;;2.50;50.00;;;;;;943922;150;27486;-78
2022/03/07 02:10:59;;;;;;;5.00;4.33;;;2.50;50.00;;;;;;942543;150;27359;-78
2022/03/07 02:13:26;;;;;;;4.83;4.30;;;2.50;49.90;;;;;;943926;150;27357;-78
2022/03/07 02:15:52;;;;;;;4.60;4.20;;;2.50;49.90;;;;;;944507;148;27251;-78
2022/03/07 02:18:21;;;;;;;6.33;4.73;;;2.50;49.80;;;;;;943574;150;27291;-78
2022/03/07 02:20:46;;;;;;;4.60;4.20;;;2.60;49.80;;;;;;943162;149;27400;-78
2022/03/07 02:23:12;;;;;;;6.13;5.53;;;2.60;49.80;;;;;;944447;150;27312;-78
2022/03/07 02:25:39;;;;;;;5.67;5.17;;;2.60;49.80;;;;;;947074;150;27354;-78
2022/03/07 02:28:05;;;;;;;5.17;4.70;;;2.60;49.70;;;;;;944528;148;27341;-78
2022/03/07 02:30:32;;;;;;;5.03;4.53;;;2.60;49.60;;;;;;945790;150;27461;-78
2022/03/07 02:32:58;;;;;;;5.90;4.93;;;2.60;49.60;;;;;;946261;150;27283;-78
2022/03/07 02:35:25;;;;;;;7.53;5.27;;;2.60;49.60;;;;;;946190;148;27303;-78
2022/03/07 02:37:52;;;;;;;7.03;5.23;;;2.50;49.50;;;;;;945485;148;27429;-78
2022/03/07 02:40:20;;;;;;;8.13;6.33;;;2.50;49.60;;;;;;945014;148;27393;-78
2022/03/07 02:42:45;;;;;;;6.90;5.03;;;2.40;49.50;;;;;;946198;149;27849;-78
2022/03/07 02:45:11;;;;;;;5.93;5.33;;;2.40;49.60;;;;;;947689;148;27434;-78
2022/03/07 02:47:38;;;;;;;8.43;5.97;;;2.40;49.60;;;;;;945986;150;27350;-78
2022/03/07 02:50:05;;;;;;;6.90;6.20;;;2.40;49.60;;;;;;943969;150;27389;-78
2022/03/07 02:52:31;;;;;;;6.77;6.07;;;2.30;49.60;;;;;;947099;148;27286;-78
2022/03/07 02:55:00;;;;;;;8.73;5.83;;;2.30;49.60;;;;;;947194;148;27268;-78
2022/03/07 02:57:27;;;;;;;7.47;5.80;;;2.30;49.70;;;;;;945775;148;27342;-78
2022/03/07 02:59:54;;;;;;;6.23;5.63;;;2.30;49.80;;;;;;945580;148;27370;-78
2022/03/07 03:02:21;;;;;;;7.07;5.57;;;2.30;49.80;;;;;;943685;148;27471;-78
2022/03/07 03:04:47;;;;;;;6.20;5.60;;;2.40;49.90;;;;;;945783;150;27304;-78
2022/03/07 03:07:13;;;;;;;7.40;6.00;;;2.40;50.00;;;;;;944021;150;27283;-78
2022/03/07 03:09:41;;;;;;;7.90;6.13;;;2.40;49.90;;;;;;932019;150;27365;-78
2022/03/07 03:12:10;;;;;;;6.97;6.27;;;2.40;49.90;;;;;;932394;151;27776;-78
2022/03/07 03:14:33;;;;;;;8.00;6.17;;;2.40;49.70;;;;;;932401;151;27380;-78
2022/03/07 03:17:02;;;;;;;6.60;5.97;;;2.40;49.70;;;;;;933354;151;27381;-78
2022/03/07 03:19:26;;;;;;;7.23;5.90;;;2.40;49.60;;;;;;934776;151;27340;-78
2022/03/07 03:21:53;;;;;;;7.23;6.53;;;2.40;49.60;;;;;;934329;152;27359;-78
2022/03/07 03:24:19;;;;;;;7.10;6.47;;;2.40;49.60;;;;;;932304;151;27299;-78
2022/03/07 03:26:46;;;;;;;6.63;6.03;;;2.40;49.50;;;;;;933082;150;27383;-78
2022/03/07 03:29:13;;;;;;;7.50;6.70;;;2.50;49.60;;;;;;934395;152;27382;-78
2022/03/07 03:31:39;;;;;;;5.40;4.90;;;2.50;49.60;;;;;;933314;150;27376;-78
2022/03/07 03:34:06;;;;;;;7.00;6.30;;;2.50;49.60;;;;;;933361;152;27411;-78
2022/03/07 03:36:32;;;;;;;7.10;6.37;;;2.50;49.50;;;;;;931953;150;27364;-78
2022/03/07 03:38:59;;;;;;;7.30;6.60;;;2.60;49.50;;;;;;933765;151;27241;-78
2022/03/07 03:41:25;;;;;;;7.90;7.20;;;2.60;49.50;;;;;;932343;151;27438;-78
2022/03/07 03:43:52;;;;;;;7.80;6.83;;;2.60;49.50;;;;;;932105;152;27821;-78
2022/03/07 03:46:19;;;;;;;7.77;6.87;;;2.70;49.60;;;;;;933803;151;27299;-78
2022/03/07 03:48:45;;;;;;;8.10;7.30;;;2.70;49.60;;;;;;932794;152;27341;-78
2022/03/07 03:51:12;;;;;;;8.33;7.43;;;2.70;49.50;;;;;;930955;152;27346;-78
2022/03/07 03:53:38;;;;;;;8.63;7.83;;;2.70;49.50;;;;;;933072;152;27340;-78
2022/03/07 03:56:05;;;;;;;7.30;6.67;;;2.80;49.50;;;;;;931706;152;28037;-78
2022/03/07 03:58:32;;;;;;;8.40;7.50;;;2.80;49.60;;;;;;935187;151;27306;-78
2022/03/07 04:00:58;;;;;;;8.30;6.60;;;2.90;49.50;;;;;;933582;149;27324;-78
2022/03/07 04:03:26;;;;;;;12.07;7.30;;;2.90;49.50;;;;;;934637;149;27363;-78
2022/03/07 04:05:51;;;;;;;6.77;6.00;;;2.90;49.50;;;;;;931428;151;27354;-78
2022/03/07 04:08:18;;;;;;;8.90;6.67;;;2.90;49.50;;;;;;934105;151;27379;-78
2022/03/07 04:10:44;;;;;;;7.77;7.00;;;3.00;49.50;;;;;;932951;152;27485;-78
2022/03/07 04:13:11;;;;;;;7.77;6.93;;;3.00;49.50;;;;;;932212;152;27345;-78
2022/03/07 04:15:38;;;;;;;8.93;7.63;;;3.00;49.50;;;;;;935115;152;28804;-78
2022/03/07 04:18:04;;;;;;;7.03;6.33;;;3.00;49.40;;;;;;934331;151;27375;-78
2022/03/07 04:20:31;;;;;;;7.27;6.57;;;3.00;49.50;;;;;;934703;152;27359;-78
2022/03/07 04:22:57;;;;;;;6.87;6.27;;;3.10;49.50;;;;;;932571;151;27424;-78
2022/03/07 04:25:24;;;;;;;6.83;6.20;;;3.10;49.50;;;;;;934074;151;27806;-78
2022/03/07 04:27:51;;;;;;;7.23;6.47;;;3.10;49.50;;;;;;932884;152;27351;-78
2022/03/07 04:30:17;;;;;;;7.10;6.47;;;3.10;49.40;;;;;;934961;151;27429;-78
2022/03/07 04:32:44;;;;;;;9.00;6.23;;;3.10;49.30;;;;;;933587;151;28036;-78
2022/03/07 04:35:11;;;;;;;7.10;6.40;;;3.20;49.40;;;;;;932861;152;27320;-78
2022/03/07 04:37:40;;;;;;;8.47;7.67;;;3.20;49.40;;;;;;932801;152;27366;-78
2022/03/07 04:40:04;;;;;;;7.63;6.83;;;3.20;49.40;;;;;;932656;151;27318;-78
2022/03/07 04:42:30;;;;;;;7.40;6.27;;;3.20;49.20;;;;;;932900;151;27400;-78
2022/03/07 04:44:57;;;;;;;7.83;6.57;;;3.20;49.20;;;;;;935170;152;27430;-78
2022/03/07 04:47:23;;;;;;;7.23;6.53;;;3.30;49.30;;;;;;932981;152;27356;-78
2022/03/07 04:49:50;;;;;;;7.67;6.97;;;3.30;49.30;;;;;;931746;151;27331;-78
2022/03/07 04:52:16;;;;;;;8.97;7.10;;;3.30;49.30;;;;;;933398;152;27757;-78
2022/03/07 04:54:43;;;;;;;7.30;6.60;;;3.30;49.30;;;;;;931488;152;27298;-78
2022/03/07 04:57:10;;;;;;;7.77;7.07;;;3.30;49.30;;;;;;933335;152;27454;-78
2022/03/07 04:59:36;;;;;;;6.87;6.17;;;3.30;49.20;;;;;;932576;150;27274;-78
2022/03/07 05:02:03;;;;;;;7.37;6.67;;;3.30;49.20;;;;;;934310;152;27319;-78
2022/03/07 05:04:29;;;;;;;7.13;6.43;;;3.20;49.00;;;;;;934723;151;28067;-78
2022/03/07 05:06:56;;;;;;;7.87;7.17;;;3.20;49.00;;;;;;932667;151;27328;-78
2022/03/07 05:09:23;;;;;;;6.80;5.97;;;3.20;49.00;;;;;;936283;150;27323;-78
2022/03/07 05:11:49;;;;;;;6.77;6.20;;;3.10;49.00;;;;;;944762;150;27327;-78
2022/03/07 05:14:17;;;;;;;6.63;5.90;;;3.10;49.00;;;;;;945443;150;27673;-78
2022/03/07 05:16:42;;;;;;;7.33;6.67;;;3.10;49.00;;;;;;945813;149;27367;-78
2022/03/07 05:19:09;;;;;;;7.07;6.37;;;3.00;49.00;;;;;;944924;149;27412;-78
2022/03/07 05:21:35;;;;;;;6.87;6.27;;;3.00;49.00;;;;;;948257;148;27611;-78
2022/03/07 05:24:02;;;;;;;6.47;5.87;;;2.90;49.00;;;;;;945039;150;27359;-78
2022/03/07 05:26:29;;;;;;;6.70;6.03;;;2.90;49.00;;;;;;944351;150;27385;-78
2022/03/07 05:28:55;;;;;;;5.67;5.17;;;2.90;49.00;;;;;;945203;148;27279;-78
2022/03/07 05:31:22;;;;;;;6.53;5.20;;;2.90;49.10;;;;;;944924;150;27281;-78
2022/03/07 05:33:48;;;;;;;5.27;4.77;;;2.80;49.00;;;;;;944645;150;27349;-78
2022/03/07 05:36:15;;;;;;;6.13;5.53;;;2.80;49.10;;;;;;946466;147;27342;-78
2022/03/07 05:38:42;;;;;;;5.97;5.47;;;2.70;49.10;;;;;;946074;148;27354;-78
2022/03/07 05:41:08;;;;;;;6.93;5.00;;;2.70;49.10;;;;;;944755;150;27489;-78
2022/03/07 05:43:35;;;;;;;5.23;4.83;;;2.60;49.20;;;;;;943357;150;27380;-78
2022/03/07 05:46:01;;;;;;;5.83;5.27;;;2.60;49.70;;;;;;945587;149;27356;-78
2022/03/07 05:48:28;;;;;;;5.23;4.83;;;2.50;49.10;;;;;;945008;148;27312;-78
2022/03/07 05:50:54;;;;;;;5.73;5.23;;;2.50;49.20;;;;;;945945;148;27432;-78
2022/03/07 05:53:23;;;;;;;5.77;5.27;;;2.50;49.30;;;;;;945152;148;27298;-78
2022/03/07 05:55:48;;;;;;;7.13;5.43;;;2.40;49.30;;;;;;946210;149;27382;-78
2022/03/07 05:58:14;;;;;;;6.57;5.10;;;2.40;49.30;;;;;;945568;149;27680;-78
2022/03/07 06:00:41;;;;;;;7.33;6.47;;;2.40;49.50;;;;;;947114;150;27348;-78
2022/03/07 06:03:07;;;;;;;6.83;5.10;;;2.30;49.50;;;;;;946138;150;27283;-78
2022/03/07 06:05:34;;;;;;;5.50;5.00;;;2.30;49.50;;;;;;944268;150;27260;-78
2022/03/07 06:08:01;;;;;;;5.97;5.37;;;2.30;49.50;;;;;;945594;150;27763;-78
2022/03/07 06:10:27;;;;;;;5.50;5.00;;;2.20;49.50;;;;;;940451;150;27697;-78
2022/03/07 06:12:54;;;;;;;5.57;4.80;;;2.20;49.50;;;;;;933341;151;27307;-78
2022/03/07 06:15:20;;;;;;;5.30;4.80;;;2.20;49.60;;;;;;932223;152;27463;-78
2022/03/07 06:17:53;;;;;;;5.67;5.00;;;2.20;49.80;;;;;;933351;152;27313;-78
2022/03/07 06:20:19;;;;;;;5.53;4.93;;;2.20;49.40;;;;;;932607;151;27285;-78
2022/03/07 06:22:46;;;;;;;5.43;4.93;;;2.30;50.20;;;;;;936399;152;27328;-78
2022/03/07 06:25:13;;;;;;;5.30;4.80;;;2.40;50.40;;;;;;934648;151;27378;-78
2022/03/07 06:27:39;;;;;;;4.80;4.40;;;2.60;50.70;;;;;;933498;149;27856;-78
2022/03/07 06:30:06;;;;;;;6.43;4.83;;;2.80;50.20;;;;;;934928;149;27335;-79
2022/03/07 06:32:32;;;;;;;4.77;4.37;;;3.10;50.90;;;;;;931758;149;27484;-78
2022/03/07 06:34:59;;;;;;;5.20;4.77;;;3.40;51.00;;;;;;932308;152;27361;-78
2022/03/07 06:37:25;;;;;;;5.03;4.53;;;3.80;51.00;;;;;;933501;152;27294;-78
2022/03/07 06:39:52;;;;;;;4.87;4.33;;;4.10;51.00;;;;;;931675;152;27411;-78
2022/03/07 06:42:19;;;;;;;5.33;4.83;;;4.50;51.10;;;;;;933542;149;27327;-78
2022/03/07 06:44:45;;;;;;;5.20;4.80;;;4.90;50.90;;;;;;931661;149;27721;-78
2022/03/07 06:47:13;;;;;;;4.80;4.50;;;5.30;50.80;;;;;;934900;149;27358;-78
2022/03/07 06:49:40;;;;;;;4.57;4.17;;;5.70;50.50;;;;;;934486;149;27356;-78
2022/03/07 06:52:05;;;;;;;4.63;4.23;;;6.10;50.40;;;;;;932901;152;27385;-78
2022/03/07 06:54:32;;;;;;;5.30;4.80;;;6.50;50.10;;;;;;933421;152;27429;-78
2022/03/07 06:56:58;;;;;;;5.87;5.33;;;6.90;49.90;;;;;;936061;149;27736;-78
2022/03/07 06:59:25;;;;;;;5.37;4.97;;;7.30;49.50;;;;;;933052;150;27321;-78
2022/03/07 07:01:51;;;;;;;5.33;4.77;;;7.70;49.00;;;;;;933348;152;27296;-78
2022/03/07 07:04:18;;;;;;;5.60;5.07;;;8.00;48.90;;;;;;934496;149;27289;-78
2022/03/07 07:06:44;;;;;;;5.23;4.83;;;8.40;48.70;;;;;;933942;149;27341;-78
2022/03/07 07:09:11;;;;;;;5.83;5.07;;;8.70;48.30;;;;;;933669;149;28413;-78
2022/03/07 07:11:38;;;;;;;5.17;4.80;;;9.10;48.20;;;;;;932659;149;27422;-78
2022/03/07 07:14:04;;;;;;;4.80;4.30;;;9.50;47.80;;;;;;934040;152;27277;-78
2022/03/07 07:16:31;;;;;;;4.87;4.47;;;9.80;47.40;;;;;;934173;149;27411;-78
2022/03/07 07:18:57;;;;;;;5.37;4.87;;;10.10;47.00;;;;;;935113;149;27313;-78
2022/03/07 07:21:24;;;;;;;4.80;4.50;;;10.40;46.70;;;;;;933973;152;27280;-78
2022/03/07 07:23:51;;;;;;;4.87;4.47;;;10.70;46.60;;;;;;933118;149;27341;-78
2022/03/07 07:26:17;;;;;;;4.93;4.57;;;11.00;46.40;;;;;;934362;149;27351;-78
2022/03/07 07:28:46;;;;;;;4.57;4.20;;;11.40;46.30;;;;;;933453;150;27290;-78
2022/03/07 07:31:10;;;;;;;4.60;4.10;;;11.70;45.90;;;;;;933792;150;27270;-78
2022/03/07 07:33:37;;;;;;;4.47;4.07;;;12.10;45.60;;;;;;933091;152;27309;-78
2022/03/07 07:36:04;;;;;;;4.87;4.47;;;12.40;45.00;;;;;;933629;150;27322;-78
2022/03/07 07:38:30;;;;;;;4.53;4.10;;;12.70;44.60;;;;;;933606;150;27416;-78
2022/03/07 07:40:57;;;;;;;4.47;4.10;;;13.00;44.00;;;;;;932308;150;27750;-79
2022/03/07 07:43:23;;;;;;;4.20;3.90;;;13.20;43.60;;;;;;933392;150;27341;-79
2022/03/07 07:45:50;;;;;;;4.20;3.90;;;13.40;43.10;;;;;;933839;152;27315;-78
2022/03/07 07:48:16;;;;;;;4.17;3.87;;;13.60;43.00;;;;;;933519;151;27394;-78
2022/03/07 07:50:43;;;;;;;3.67;3.37;;;13.80;42.90;;;;;;934562;151;27237;-79
2022/03/07 07:53:10;;;;;;;3.83;3.53;;;14.10;42.50;;;;;;931779;151;27856;-79
2022/03/07 07:55:36;;;;;;;3.90;3.60;;;14.30;42.40;;;;;;934001;152;27382;-78
2022/03/07 07:58:03;;;;;;;4.10;3.80;;;14.40;42.10;;;;;;933831;151;27434;-79
2022/03/07 08:00:29;;;;;;;3.83;3.43;;;14.70;42.10;;;;;;933696;152;27450;-79
2022/03/07 08:02:56;;;;;;;3.53;3.23;;;14.90;41.90;;;;;;932485;151;27421;-79
2022/03/07 08:05:23;;;;;;;3.50;3.30;;;15.10;41.80;;;;;;935632;149;27335;-79
2022/03/07 08:07:49;;;;;;;3.80;3.50;;;15.40;41.40;;;;;;934216;151;27365;-79
2022/03/07 08:10:16;;;;;;;3.92;3.37;;;15.70;41.10;;;;;;932087;152;27281;-79
2022/03/07 08:12:42;;;;;;;3.87;3.57;;;15.80;40.70;;;;;;934200;151;27333;-79
2022/03/07 08:15:12;;;;;;;3.45;3.15;;;16.10;40.30;;;;;;934673;150;27432;-79
2022/03/07 08:17:38;;;;;;;3.50;3.30;;;16.30;39.40;;;;;;932838;152;27371;-79
2022/03/07 08:20:05;;;;;;;3.10;2.90;;;16.40;39.60;;;;;;934652;150;27322;-79
2022/03/07 08:22:32;;;;;;;3.58;3.27;;;16.60;39.40;;;;;;934026;151;28519;-79
2022/03/07 08:24:58;;;;;;;4.00;3.70;;;16.70;39.20;;;;;;935798;151;27341;-79
2022/03/07 08:27:25;;;;;;;3.50;3.20;;;16.80;37.50;;;;;;932356;150;27297;-78
2022/03/07 08:29:51;;;;;;;3.60;3.30;;;16.70;37.70;;;;;;932984;150;27415;-78
2022/03/07 08:32:18;;;;;;;4.93;3.50;;;16.40;36.70;;;;;;934795;152;27298;-79
2022/03/07 08:34:45;;;;;;;3.80;3.50;;;16.10;36.90;;;;;;934279;150;27343;-78
2022/03/07 08:37:11;;;;;;;3.80;3.50;;;15.70;36.90;;;;;;932767;152;27365;-79
2022/03/07 08:39:38;;;;;;;3.97;3.57;;;15.40;37.00;;;;;;936342;152;27410;-78
2022/03/07 08:42:04;;;;;;;4.20;3.80;;;15.00;37.30;;;;;;934451;152;27238;-78
2022/03/07 08:44:31;;;;;;;4.17;3.77;;;14.60;37.30;;;;;;932362;151;27809;-78
2022/03/07 08:46:58;;;;;;;3.40;3.10;;;14.20;37.00;;;;;;935138;151;27415;-79
2022/03/07 08:49:24;;;;;;;3.53;3.23;;;13.90;37.30;;;;;;933131;152;27286;-79
2022/03/07 08:51:51;;;;;;;3.40;3.20;;;13.50;37.60;;;;;;936343;150;27405;-79
2022/03/07 08:54:17;;;;;;;4.00;3.70;;;13.20;37.20;;;;;;933438;151;27792;-79
2022/03/07 08:56:44;;;;;;;3.87;3.57;;;12.70;37.30;;;;;;932681;149;27313;-78
2022/03/07 08:59:10;;;;;;;4.43;4.00;;;12.30;37.50;;;;;;933246;151;27340;-78
2022/03/07 09:01:37;;;;;;;3.87;3.63;;;11.90;37.60;;;;;;932545;151;27340;-79
2022/03/07 09:04:04;;;;;;;3.70;3.50;;;11.50;37.80;;;;;;933988;150;27288;-79
2022/03/07 09:06:30;;;;;;;4.40;4.10;;;11.20;38.30;;;;;;935506;152;27389;-79
2022/03/07 09:08:57;;;;;;;3.83;3.60;;;10.90;39.30;;;;;;932879;152;27371;-79
2022/03/07 09:11:23;;;;;;;4.17;3.80;;;10.60;38.60;;;;;;933367;150;27937;-79
2022/03/07 09:13:50;;;;;;;4.60;4.20;;;10.50;39.00;;;;;;946639;148;27427;-79
2022/03/07 09:16:17;;;;;;;4.20;3.80;;;10.40;39.70;;;;;;945568;148;27384;-78
2022/03/07 09:18:43;;;;;;;4.73;4.17;;;10.40;40.10;;;;;;943150;148;27433;-79
2022/03/07 09:21:10;;;;;;;3.97;3.67;;;10.40;40.00;;;;;;946533;148;27314;-78
2022/03/07 09:23:39;;;;;;;3.90;3.60;;;10.30;40.30;;;;;;945117;148;27747;-78
2022/03/07 09:26:03;;;;;;;4.10;3.80;;;10.20;39.60;;;;;;944345;149;27334;-78
2022/03/07 09:28:30;;;;;;;4.20;3.90;;;10.10;39.50;;;;;;945929;148;27443;-78
2022/03/07 09:30:56;;;;;;;3.83;3.53;;;9.90;39.50;;;;;;944456;148;27840;-78
2022/03/07 09:33:24;;;;;;;4.17;3.87;;;9.70;39.60;;;;;;943608;150;27761;-78
2022/03/07 09:35:49;;;;;;;5.97;3.67;;;9.50;39.60;;;;;;942988;149;27443;-78
2022/03/07 09:38:16;;;;;;;3.73;3.43;;;9.40;39.70;;;;;;943649;148;27608;-78
2022/03/07 09:40:42;;;;;;;3.80;3.50;;;9.20;40.00;;;;;;946035;148;27251;-78
2022/03/07 09:43:09;;;;;;;4.13;3.80;;;9.00;40.20;;;;;;944347;148;27375;-78
2022/03/07 09:46:25;;;;;;;4.00;3.60;;;8.90;40.30;;;;;;943114;148;27456;-78
2022/03/07 09:48:52;;;;;;;4.33;3.90;;;8.80;40.50;;;;;;944713;150;27335;-79
2022/03/07 09:51:18;;;;;;;3.63;3.33;;;8.80;41.00;;;;;;945360;150;27291;-79
2022/03/07 09:53:45;;;;;;;4.10;3.80;;;9.00;41.70;;;;;;946820;150;27338;-78
2022/03/07 09:56:11;;;;;;;4.50;3.90;;;9.10;42.10;;;;;;945285;150;27334;-78
2022/03/07 09:58:38;;;;;;;3.73;3.43;;;9.30;42.20;;;;;;945739;150;27282;-78
2022/03/07 10:01:10;;;;;;;5.20;3.60;;;9.50;42.00;;;;;;944674;150;27360;-78
2022/03/07 10:03:37;;;;;;;4.93;3.70;;;9.60;41.40;;;;;;943729;150;27315;-79
2022/03/07 10:06:03;;;;;;;3.80;3.50;;;9.70;41.20;;;;;;944147;149;27402;-78
2022/03/07 10:08:30;;;;;;;3.97;3.67;;;9.70;41.30;;;;;;945804;148;27413;-78
2022/03/07 10:10:57;;;;;;;4.50;4.10;;;9.70;41.10;;;;;;942453;150;27453;-79
2022/03/07 10:13:23;;;;;;;4.60;4.20;;;9.80;41.30;;;;;;939156;150;27415;-79
2022/03/07 10:15:56;;;;;;;4.07;3.77;;;9.80;41.30;;;;;;934518;152;27270;-79
2022/03/07 10:18:22;;;;;;;4.27;3.87;;;9.90;41.40;;;;;;932888;151;27399;-80
2022/03/07 10:20:49;;;;;;;5.23;4.30;;;10.00;41.30;;;;;;932663;152;27316;-80
2022/03/07 10:23:15;;;;;;;4.33;3.93;;;10.10;41.30;;;;;;933453;150;27269;-79
2022/03/07 10:25:44;;;;;;;4.63;4.27;;;10.20;41.20;;;;;;933838;152;27260;-80
2022/03/07 10:28:09;;;;;;;4.40;4.00;;;10.30;40.70;;;;;;932883;151;27425;-79
2022/03/07 10:30:35;;;;;;;4.77;4.03;;;10.30;40.80;;;;;;934706;152;27349;-79
2022/03/07 10:33:05;;;;;;;4.57;4.17;;;10.40;41.00;;;;;;934675;152;27437;-79
2022/03/07 10:35:31;;;;;;;5.10;4.70;;;10.40;40.60;;;;;;933764;149;27316;-79
2022/03/07 10:38:04;;;;;;;4.37;3.83;;;10.40;40.50;;;;;;929718;149;27263;-79
2022/03/07 10:40:30;;;;;;;4.67;4.10;;;10.50;40.60;;;;;;933767;151;27319;-80
2022/03/07 10:43:00;;;;;;;4.30;3.90;;;10.50;40.60;;;;;;931747;151;27607;-79
2022/03/07 10:45:24;;;;;;;4.53;4.13;;;10.50;40.30;;;;;;932331;151;27364;-79
2022/03/07 10:47:59;;;;;;;4.30;3.80;;;10.40;40.70;;;;;;933151;152;27336;-79
2022/03/07 10:50:25;;;;;;;4.37;3.90;;;10.40;40.30;;;;;;932951;151;27372;-79
2022/03/07 10:52:52;;;;;;;4.50;4.10;;;10.30;40.30;;;;;;933145;151;27319;-79
2022/03/07 10:55:25;;;;;;;4.47;4.07;;;10.20;40.30;;;;;;931620;149;27833;-80
2022/03/07 10:57:51;;;;;;;4.13;3.80;;;10.10;40.30;;;;;;933472;149;27402;-79
2022/03/07 11:00:18;;;;;;;4.70;4.30;;;10.00;40.40;;;;;;932911;152;27357;-79
2022/03/07 11:02:44;;;;;;;4.90;4.40;;;9.90;40.30;;;;;;933237;150;27900;-79
2022/03/07 11:05:11;;;;;;;4.60;4.20;;;9.80;40.40;;;;;;933544;149;27357;-80
2022/03/07 11:07:38;;;;;;;5.77;5.27;;;9.70;40.40;;;;;;932513;151;27240;-79
2022/03/07 11:10:08;;;;;;;4.50;4.10;;;9.60;40.60;;;;;;933365;152;27328;-79
2022/03/07 11:12:34;;;;;;;3.83;3.57;;;9.50;40.70;;;;;;932246;152;27325;-80
2022/03/07 11:15:08;;;;;;;4.60;4.27;;;9.50;41.40;;;;;;932923;150;27333;-79
2022/03/07 11:17:27;;;;;;;4.97;3.90;;;9.40;41.00;;;;;;933109;151;27341;-79
2022/03/07 11:19:54;;;;;;;5.03;4.63;;;9.40;41.10;;;;;;934738;150;27336;-79
2022/03/07 11:22:20;;;;;;;4.27;3.87;;;9.40;41.30;;;;;;933595;151;27349;-80
2022/03/07 11:24:47;;;;;;;4.33;3.80;;;9.40;41.40;;;;;;932453;150;27353;-80
2022/03/07 11:27:13;;;;;;;4.87;4.47;;;9.40;41.40;;;;;;934790;149;27365;-78
2022/03/07 11:29:40;;;;;;;5.23;4.83;;;9.40;41.30;;;;;;933601;149;27328;-79
2022/03/07 11:32:09;;;;;;;4.83;4.43;;;9.40;41.30;;;;;;931013;151;27873;-79
2022/03/07 11:34:36;;;;;;;4.40;4.00;;;9.40;41.90;;;;;;932122;151;27348;-80
2022/03/07 11:37:03;;;;;;;4.80;4.50;;;9.40;41.30;;;;;;932644;151;27337;-79
2022/03/07 11:39:29;;;;;;;4.93;4.53;;;9.30;41.20;;;;;;932060;152;27441;-80
2022/03/07 11:41:56;;;;;;;4.90;4.50;;;9.30;41.30;;;;;;932786;151;27333;-80
2022/03/07 11:44:22;;;;;;;4.53;4.23;;;9.20;41.30;;;;;;929780;151;27595;-79
2022/03/07 11:46:51;;;;;;;5.30;4.80;;;9.10;41.40;;;;;;933270;149;27435;-79
2022/03/07 11:49:26;;;;;;;5.03;4.53;;;9.10;41.60;;;;;;932574;150;27380;-79
2022/03/07 11:51:51;;;;;;;5.17;4.40;;;9.00;41.60;;;;;;932792;151;27296;-80
2022/03/07 11:54:21;;;;;;;4.77;4.27;;;9.00;41.60;;;;;;934087;151;27442;-79
2022/03/07 11:56:47;;;;;;;4.87;4.43;;;8.90;41.60;;;;;;931133;151;28080;-80
2022/03/07 11:59:13;;;;;;;4.17;3.77;;;8.90;41.70;;;;;;931722;152;27350;-80
2022/03/07 12:01:40;;;;;;;5.60;4.37;;;8.80;41.90;;;;;;935871;152;27331;-79
2022/03/07 12:04:14;;;;;;;5.87;5.23;;;8.80;42.00;;;;;;934178;149;27385;-80
2022/03/07 12:06:42;;;;;;;5.40;4.90;;;8.70;42.00;;;;;;933218;151;27366;-80
2022/03/07 12:09:09;;;;;;;5.50;5.00;;;8.60;42.00;;;;;;932757;150;27508;-80
2022/03/07 12:11:35;;;;;;;5.10;4.70;;;8.60;42.10;;;;;;933144;151;27317;-79
2022/03/07 12:14:04;;;;;;;4.57;4.17;;;8.50;42.10;;;;;;935923;151;27335;-79
2022/03/07 12:16:36;;;;;;;5.20;4.80;;;8.40;42.10;;;;;;940818;151;27369;-80
2022/03/07 12:19:12;;;;;;;4.70;4.30;;;8.40;42.30;;;;;;938988;151;27433;-80
2022/03/07 12:21:41;;;;;;;4.60;4.20;;;8.30;42.80;;;;;;938372;151;27412;-80
2022/03/07 12:24:05;;;;;;;4.63;4.33;;;8.20;42.50;;;;;;939862;151;27369;-80
2022/03/07 12:26:32;;;;;;;4.53;3.93;;;8.10;42.70;;;;;;939581;151;27461;-80
2022/03/07 12:28:58;;;;;;;5.73;4.10;;;8.10;42.60;;;;;;938206;151;27768;-79
2022/03/07 12:31:25;;;;;;;4.13;3.83;;;8.00;42.60;;;;;;939835;151;27303;-79
2022/03/07 12:33:51;;;;;;;3.90;3.57;;;8.00;42.70;;;;;;938286;151;27314;-80
2022/03/07 12:36:18;;;;;;;4.27;3.87;;;8.00;42.70;;;;;;939147;151;27276;-80
2022/03/07 12:38:50;;;;;;;4.07;3.77;;;7.90;42.70;;;;;;939360;151;27338;-80
2022/03/07 12:41:19;;;;;;;4.10;3.73;;;7.90;42.80;;;;;;941493;151;27433;-80
2022/03/07 12:43:46;;;;;;;4.47;4.07;;;7.80;42.80;;;;;;938982;151;27377;-80
2022/03/07 12:46:12;;;;;;;4.03;3.73;;;7.80;43.00;;;;;;938299;151;27264;-80
2022/03/07 12:48:45;;;;;;;4.20;3.90;;;7.80;43.00;;;;;;939226;149;27426;-78
2022/03/07 12:51:08;;;;;;;3.50;3.20;;;7.70;43.10;;;;;;937304;151;27442;-80
2022/03/07 12:53:35;;;;;;;3.37;3.07;;;7.70;43.10;;;;;;928378;151;27371;-80